Time;durP1;ratioP1;P1;durP2;ratioP2;P2;SDS_P1;SDS_P2;PMS_P1;PMS_P2;Temp;Humidity;BMP_temperature;BMP_pressure;BME280_temperature;BME280_humidity;BME280_pressure;Samples;Min_cycle;Max_cycle;Signal;HPM_P1;HPM_P2
2023/09/08 00:00:40;;;;;;;4.40;2.65;;;26.50;96.70;;;;;;5107130;28;20050;-77
2023/09/08 00:03:08;;;;;;;3.30;3.00;;;26.40;96.70;;;;;;5107049;28;20054;-77
2023/09/08 00:05:36;;;;;;;3.88;2.85;;;26.50;96.70;;;;;;5089089;28;20447;-77
2023/09/08 00:08:05;;;;;;;3.63;3.33;;;26.50;96.70;;;;;;5088987;28;20051;-77
2023/09/08 00:10:33;;;;;;;3.55;2.85;;;26.40;96.70;;;;;;5138600;27;20098;-76
2023/09/08 00:13:02;;;;;;;5.18;2.60;;;26.40;96.70;;;;;;5088664;28;20047;-77
2023/09/08 00:15:33;;;;;;;3.10;2.80;;;26.40;96.70;;;;;;5106948;28;20100;-76
2023/09/08 00:18:01;;;;;;;3.95;2.85;;;26.40;96.70;;;;;;5088626;28;20050;-77
2023/09/08 00:20:29;;;;;;;3.10;2.80;;;26.40;96.70;;;;;;5088914;28;20147;-77
2023/09/08 00:22:57;;;;;;;3.85;2.97;;;26.40;96.70;;;;;;5106826;28;20043;-76
2023/09/08 00:25:25;;;;;;;3.17;2.55;;;26.40;96.70;;;;;;5088731;28;20044;-76
2023/09/08 00:27:53;;;;;;;2.90;2.60;;;26.30;96.70;;;;;;5106625;28;20438;-77
2023/09/08 00:30:22;;;;;;;2.90;2.60;;;26.30;96.70;;;;;;5087776;28;20134;-77
2023/09/08 00:32:50;;;;;;;3.67;2.50;;;26.30;96.70;;;;;;5106895;28;20230;-78
2023/09/08 00:35:19;;;;;;;2.97;2.63;;;26.30;96.70;;;;;;5088121;28;20476;-77
2023/09/08 00:37:47;;;;;;;5.50;2.67;;;26.20;96.70;;;;;;5079749;28;20473;-76
2023/09/08 00:40:15;;;;;;;5.05;2.22;;;26.20;96.70;;;;;;5071418;28;20556;-77
2023/09/08 00:42:43;;;;;;;4.35;2.92;;;26.20;96.70;;;;;;5106023;28;20550;-77
2023/09/08 00:45:11;;;;;;;3.03;2.80;;;26.20;96.70;;;;;;5088140;28;20100;-77
2023/09/08 00:47:41;;;;;;;3.47;2.90;;;26.20;96.70;;;;;;5088287;28;20481;-78
2023/09/08 00:50:10;;;;;;;3.15;2.85;;;26.20;96.70;;;;;;5105745;28;20377;-78
2023/09/08 00:52:38;;;;;;;5.20;2.80;;;26.10;96.70;;;;;;5070962;28;20051;-77
2023/09/08 00:55:06;;;;;;;3.08;2.60;;;26.20;96.70;;;;;;5071079;28;20122;-76
2023/09/08 00:57:35;;;;;;;3.75;2.40;;;26.20;96.70;;;;;;5088366;28;20044;-77
2023/09/08 01:00:06;;;;;;;4.35;3.00;;;26.10;96.70;;;;;;5071164;28;20134;-77
2023/09/08 01:02:34;;;;;;;3.65;2.67;;;26.10;96.70;;;;;;5070812;28;20493;-77
2023/09/08 01:05:06;;;;;;;2.63;2.40;;;26.10;96.70;;;;;;5071275;28;20058;-77
2023/09/08 01:07:35;;;;;;;7.10;2.78;;;26.10;96.70;;;;;;5088158;28;20035;-76
2023/09/08 01:10:05;;;;;;;4.97;2.80;;;26.10;96.70;;;;;;5088025;28;20563;-77
2023/09/08 01:12:34;;;;;;;3.35;2.65;;;26.10;96.70;;;;;;5100317;28;20066;-77
2023/09/08 01:15:04;;;;;;;3.20;2.90;;;26.00;96.70;;;;;;5087005;28;20126;-77
2023/09/08 01:17:36;;;;;;;2.65;2.45;;;26.00;96.70;;;;;;5105725;28;20047;-76
2023/09/08 01:20:12;;;;;;;3.03;2.58;;;26.00;96.70;;;;;;5087763;28;20531;-77
2023/09/08 01:23:04;;;;;;;3.83;2.60;;;25.90;96.70;;;;;;5087888;28;20074;-77
2023/09/08 01:25:38;;;;;;;3.88;2.75;;;25.90;96.70;;;;;;5079231;28;20079;-77
2023/09/08 01:28:08;;;;;;;3.00;2.67;;;25.90;96.70;;;;;;5086881;28;20619;-77
2023/09/08 01:30:37;;;;;;;3.30;2.60;;;25.70;96.70;;;;;;5087244;28;20047;-77
2023/09/08 01:33:06;;;;;;;2.97;2.45;;;25.70;96.70;;;;;;5105881;28;20058;-77
2023/09/08 01:35:35;;;;;;;3.58;3.00;;;25.80;96.70;;;;;;5105006;28;20086;-77
2023/09/08 01:38:03;;;;;;;4.72;3.00;;;25.70;96.70;;;;;;5087008;28;20088;-77
2023/09/08 01:40:31;;;;;;;3.03;2.75;;;25.70;96.70;;;;;;5086062;28;20052;-77
2023/09/08 01:43:01;;;;;;;3.88;3.22;;;25.60;96.70;;;;;;5087019;28;20059;-77
2023/09/08 01:45:29;;;;;;;3.50;2.90;;;25.60;96.70;;;;;;5104641;28;20051;-77
2023/09/08 01:47:58;;;;;;;3.53;3.05;;;25.50;96.70;;;;;;5086345;28;20035;-77
2023/09/08 01:50:26;;;;;;;3.90;2.90;;;25.40;96.70;;;;;;5086873;28;21602;-77
2023/09/08 01:52:54;;;;;;;4.35;3.13;;;25.40;96.70;;;;;;5087453;28;20043;-77
2023/09/08 01:55:23;;;;;;;3.45;2.90;;;25.30;96.70;;;;;;5070384;28;20846;-77
2023/09/08 01:57:51;;;;;;;5.18;2.95;;;25.30;96.70;;;;;;5067976;28;20035;-77
2023/09/08 02:00:21;;;;;;;3.47;2.85;;;25.30;96.70;;;;;;5086925;28;20052;-77
2023/09/08 02:02:49;;;;;;;3.28;2.97;;;25.30;96.70;;;;;;5089558;28;20067;-77
2023/09/08 02:05:18;;;;;;;2.95;2.63;;;25.30;96.70;;;;;;5087079;28;20055;-77
2023/09/08 02:07:46;;;;;;;3.55;3.25;;;25.20;96.70;;;;;;5087309;28;20082;-76
2023/09/08 02:10:14;;;;;;;3.80;2.92;;;25.20;96.70;;;;;;5086429;28;20059;-76
2023/09/08 02:12:42;;;;;;;4.00;3.03;;;25.20;96.70;;;;;;5086678;28;20096;-76
2023/09/08 02:15:11;;;;;;;3.17;2.88;;;25.20;96.70;;;;;;5101426;28;20064;-76
2023/09/08 02:17:41;;;;;;;4.93;2.70;;;25.20;96.70;;;;;;5086705;28;20084;-77
2023/09/08 02:20:10;;;;;;;4.47;3.00;;;25.10;96.70;;;;;;5104960;28;20146;-77
2023/09/08 02:22:39;;;;;;;4.65;3.20;;;25.20;96.70;;;;;;5086759;28;20066;-77
2023/09/08 02:25:07;;;;;;;3.15;2.70;;;25.30;96.70;;;;;;5087040;28;20054;-77
2023/09/08 02:27:36;;;;;;;4.80;3.15;;;25.30;96.70;;;;;;5103842;28;20043;-77
2023/09/08 02:30:05;;;;;;;3.03;2.67;;;25.30;96.70;;;;;;5086876;28;20688;-77
2023/09/08 02:32:34;;;;;;;3.45;3.00;;;25.20;96.70;;;;;;5070046;28;20082;-76
2023/09/08 02:35:04;;;;;;;4.38;2.78;;;25.10;96.70;;;;;;5104446;28;20078;-77
2023/09/08 02:37:33;;;;;;;2.95;2.65;;;25.10;96.70;;;;;;5087011;28;20251;-77
2023/09/08 02:40:02;;;;;;;7.07;3.13;;;25.10;96.70;;;;;;5069634;28;20068;-76
2023/09/08 02:42:31;;;;;;;3.22;2.70;;;25.10;96.70;;;;;;5117968;27;20119;-77
2023/09/08 02:45:00;;;;;;;4.80;2.67;;;25.20;96.70;;;;;;5070132;28;20069;-78
2023/09/08 02:47:29;;;;;;;4.85;2.88;;;25.20;96.70;;;;;;5104586;28;20140;-76
2023/09/08 02:49:59;;;;;;;2.90;2.70;;;25.10;96.70;;;;;;5070404;28;20039;-77
2023/09/08 02:52:28;;;;;;;4.85;3.15;;;25.20;96.70;;;;;;5088556;28;20539;-77
2023/09/08 02:54:57;;;;;;;2.90;2.60;;;25.20;96.70;;;;;;5108018;28;20112;-77
2023/09/08 02:57:25;;;;;;;5.05;3.28;;;25.20;96.70;;;;;;5089817;28;20031;-79
2023/09/08 02:59:56;;;;;;;6.10;2.80;;;25.20;96.70;;;;;;5090603;28;20051;-77
2023/09/08 03:02:25;;;;;;;3.05;2.85;;;25.20;96.70;;;;;;5090157;28;20138;-77
2023/09/08 03:04:54;;;;;;;5.55;2.83;;;25.20;96.70;;;;;;5090278;28;20104;-77
2023/09/08 03:07:22;;;;;;;3.58;2.85;;;25.20;96.70;;;;;;5108125;28;20084;-77
2023/09/08 03:09:52;;;;;;;4.82;2.60;;;25.20;96.70;;;;;;5108609;28;20504;-77
2023/09/08 03:12:24;;;;;;;3.50;2.70;;;25.20;96.70;;;;;;5110278;27;20044;-77
2023/09/08 03:14:52;;;;;;;2.83;2.63;;;25.20;96.70;;;;;;5089777;28;20047;-77
2023/09/08 03:17:20;;;;;;;2.92;2.63;;;25.20;96.70;;;;;;5108429;28;20044;-77
2023/09/08 03:19:48;;;;;;;2.83;2.63;;;25.20;96.70;;;;;;5073211;28;20589;-77
2023/09/08 03:22:16;;;;;;;3.65;2.60;;;25.30;96.70;;;;;;5090092;28;20051;-77
2023/09/08 03:24:44;;;;;;;2.85;2.45;;;25.30;96.70;;;;;;5090120;28;20036;-77
2023/09/08 03:27:14;;;;;;;3.42;2.90;;;25.30;96.70;;;;;;5089769;28;20048;-77
2023/09/08 03:29:42;;;;;;;3.40;2.63;;;25.30;96.70;;;;;;5073054;28;20438;-77
2023/09/08 03:32:11;;;;;;;3.10;2.72;;;25.30;96.70;;;;;;5089780;28;20039;-77
2023/09/08 03:34:39;;;;;;;4.18;2.75;;;25.30;96.70;;;;;;5088904;28;20055;-78
2023/09/08 03:37:08;;;;;;;4.45;2.72;;;25.30;96.70;;;;;;5072897;28;20564;-77
2023/09/08 03:39:37;;;;;;;3.20;2.90;;;25.20;96.70;;;;;;5072776;28;20163;-77
2023/09/08 03:42:06;;;;;;;3.15;2.85;;;25.20;96.70;;;;;;5089271;28;20136;-77
2023/09/08 03:44:35;;;;;;;3.60;2.70;;;25.20;96.70;;;;;;5089467;28;20127;-76
2023/09/08 03:47:05;;;;;;;3.85;3.33;;;25.10;96.70;;;;;;5089595;28;20083;-77
2023/09/08 03:49:33;;;;;;;3.45;2.90;;;25.00;96.70;;;;;;5089142;28;20509;-77
2023/09/08 03:52:01;;;;;;;3.30;2.47;;;25.00;96.70;;;;;;5107481;28;20040;-77
2023/09/08 03:54:31;;;;;;;3.47;2.80;;;25.00;96.70;;;;;;5081105;28;20109;-76
2023/09/08 03:56:59;;;;;;;3.33;2.35;;;25.00;96.70;;;;;;5086969;28;20051;-77
2023/09/08 03:59:27;;;;;;;3.55;2.88;;;24.90;96.70;;;;;;5107127;28;20070;-77
2023/09/08 04:01:57;;;;;;;3.58;2.95;;;24.90;96.70;;;;;;5079073;28;20052;-77
2023/09/08 04:04:25;;;;;;;4.32;3.30;;;24.80;96.70;;;;;;5088065;28;20075;-77
2023/09/08 04:06:53;;;;;;;6.20;3.72;;;24.80;96.70;;;;;;5089507;28;20470;-77
2023/09/08 04:09:22;;;;;;;6.55;3.72;;;24.30;96.70;;;;;;5069362;28;20067;-77
2023/09/08 04:11:50;;;;;;;4.60;3.45;;;23.80;96.70;;;;;;5087976;28;20050;-76
2023/09/08 04:14:18;;;;;;;3.92;3.53;;;23.40;96.70;;;;;;5096854;28;20049;-77
2023/09/08 04:16:47;;;;;;;4.10;3.70;;;23.30;96.70;;;;;;5072225;28;20179;-76
2023/09/08 04:19:16;;;;;;;6.13;4.20;;;23.10;96.70;;;;;;5088952;28;20063;-76
2023/09/08 04:21:44;;;;;;;4.72;3.63;;;22.80;96.70;;;;;;5088748;28;20043;-77
2023/09/08 04:24:13;;;;;;;4.43;4.03;;;23.00;96.70;;;;;;5088454;28;20088;-77
2023/09/08 04:26:41;;;;;;;5.63;3.70;;;23.20;96.70;;;;;;5071710;28;20052;-77
2023/09/08 04:29:09;;;;;;;5.45;4.18;;;23.40;96.70;;;;;;5106667;28;20047;-77
2023/09/08 04:31:37;;;;;;;5.07;3.25;;;23.30;96.70;;;;;;5071847;28;20402;-77
2023/09/08 04:34:05;;;;;;;6.05;3.25;;;23.20;96.70;;;;;;5106102;28;20086;-77
2023/09/08 04:36:36;;;;;;;5.18;3.50;;;23.20;96.70;;;;;;5075527;28;20557;-77
2023/09/08 04:39:05;;;;;;;5.03;3.15;;;23.40;96.70;;;;;;5088854;28;20162;-77
2023/09/08 04:41:33;;;;;;;5.68;3.47;;;23.60;96.70;;;;;;5071562;28;20551;-77
2023/09/08 04:44:01;;;;;;;5.53;3.53;;;23.90;96.70;;;;;;5096594;28;20075;-76
2023/09/08 04:46:29;;;;;;;4.50;3.55;;;24.00;96.70;;;;;;5088291;28;20041;-76
2023/09/08 04:48:59;;;;;;;5.53;3.13;;;24.10;96.70;;;;;;5088315;28;20412;-77
2023/09/08 04:51:27;;;;;;;10.48;3.42;;;24.20;96.70;;;;;;5088234;28;20043;-77
2023/09/08 04:53:57;;;;;;;5.78;3.05;;;24.30;96.70;;;;;;5069261;28;20054;-77
2023/09/08 04:56:25;;;;;;;4.35;3.25;;;24.30;96.70;;;;;;5071349;28;20711;-77
2023/09/08 04:58:55;;;;;;;4.70;2.88;;;24.30;96.70;;;;;;5087945;28;20451;-77
2023/09/08 05:01:23;;;;;;;5.22;3.90;;;24.20;96.70;;;;;;5106286;28;20040;-76
2023/09/08 05:03:51;;;;;;;7.88;3.63;;;24.30;96.70;;;;;;5071909;28;20051;-77
2023/09/08 05:06:20;;;;;;;6.55;3.95;;;24.30;96.70;;;;;;5087764;28;20057;-77
2023/09/08 05:08:49;;;;;;;6.10;3.75;;;24.30;96.70;;;;;;5100329;27;20032;-76
2023/09/08 05:11:19;;;;;;;6.70;4.30;;;24.30;96.70;;;;;;5071522;28;20043;-77
2023/09/08 05:13:48;;;;;;;9.80;4.38;;;24.30;96.70;;;;;;5070530;28;20066;-77
2023/09/08 05:16:18;;;;;;;6.00;4.32;;;24.40;96.70;;;;;;5105900;28;20046;-77
2023/09/08 05:18:51;;;;;;;7.82;4.25;;;24.40;96.70;;;;;;5087510;28;20078;-77
2023/09/08 05:21:19;;;;;;;5.75;4.10;;;24.40;96.70;;;;;;5087622;28;20047;-77
2023/09/08 05:23:48;;;;;;;9.27;4.97;;;24.20;96.70;;;;;;5070942;28;20043;-76
2023/09/08 05:26:16;;;;;;;12.82;6.85;;;24.10;96.70;;;;;;5098421;28;20539;-77
2023/09/08 05:28:47;;;;;;;12.60;8.73;;;23.80;96.70;;;;;;5089793;28;20035;-77
2023/09/08 05:31:15;;;;;;;11.57;7.82;;;23.50;96.70;;;;;;5067549;28;20563;-77
2023/09/08 05:33:43;;;;;;;12.20;6.97;;;23.50;96.70;;;;;;5096947;28;20138;-77
2023/09/08 05:36:13;;;;;;;12.68;6.95;;;23.80;96.70;;;;;;5070724;28;20331;-77
2023/09/08 05:38:44;;;;;;;10.95;6.75;;;23.80;96.70;;;;;;5103418;28;20039;-77
2023/09/08 05:41:12;;;;;;;10.77;5.90;;;23.90;96.70;;;;;;5087424;28;20048;-77
2023/09/08 05:43:41;;;;;;;10.32;5.40;;;24.10;96.70;;;;;;5086234;28;20052;-76
2023/09/08 05:46:10;;;;;;;10.88;5.95;;;24.20;96.70;;;;;;5105119;28;20063;-77
2023/09/08 05:48:39;;;;;;;10.55;5.60;;;24.20;96.70;;;;;;5105639;28;20088;-77
2023/09/08 05:51:07;;;;;;;8.80;5.65;;;24.20;96.70;;;;;;5067737;28;20067;-78
2023/09/08 05:53:39;;;;;;;10.20;5.07;;;24.00;96.70;;;;;;5084115;28;20146;-77
2023/09/08 05:56:08;;;;;;;9.23;4.97;;;24.00;96.70;;;;;;5104893;28;20048;-77
2023/09/08 05:58:38;;;;;;;8.55;4.43;;;24.20;96.70;;;;;;5084653;28;20121;-77
2023/09/08 06:01:07;;;;;;;9.10;5.03;;;24.10;96.70;;;;;;5070565;28;20566;-76
2023/09/08 06:03:37;;;;;;;10.85;5.00;;;24.20;96.70;;;;;;5087407;28;20082;-77
2023/09/08 06:06:05;;;;;;;9.75;5.07;;;24.30;96.70;;;;;;5067484;28;20040;-77
2023/09/08 06:08:33;;;;;;;12.13;5.38;;;24.30;96.70;;;;;;5085702;28;20036;-77
2023/09/08 06:11:02;;;;;;;12.77;6.10;;;24.50;96.70;;;;;;5087057;28;20051;-77
2023/09/08 06:13:31;;;;;;;12.82;6.47;;;24.60;96.70;;;;;;5069729;28;20661;-77
2023/09/08 06:15:59;;;;;;;8.98;5.97;;;24.60;96.70;;;;;;5087144;28;20055;-77
2023/09/08 06:18:30;;;;;;;12.07;6.45;;;24.60;96.70;;;;;;5086844;28;20043;-77
2023/09/08 06:21:00;;;;;;;11.88;7.50;;;24.70;96.70;;;;;;5086832;28;20039;-77
2023/09/08 06:23:28;;;;;;;12.27;7.28;;;24.70;96.70;;;;;;5086613;28;20078;-77
2023/09/08 06:26:00;;;;;;;10.38;6.57;;;24.70;96.70;;;;;;5086433;28;20048;-77
2023/09/08 06:28:31;;;;;;;17.45;7.65;;;24.60;96.70;;;;;;5088048;28;20402;-77
2023/09/08 06:31:00;;;;;;;15.35;7.85;;;24.70;96.70;;;;;;5087748;28;20627;-77
2023/09/08 06:33:29;;;;;;;17.38;10.73;;;24.90;96.70;;;;;;5084852;28;20059;-77
2023/09/08 06:36:00;;;;;;;18.23;10.95;;;24.90;96.70;;;;;;5090722;28;20040;-77
2023/09/08 06:38:31;;;;;;;21.63;13.05;;;24.90;96.70;;;;;;5090862;28;20054;-76
2023/09/08 06:41:08;;;;;;;20.25;12.55;;;24.90;96.70;;;;;;5087726;28;20076;-77
2023/09/08 06:43:36;;;;;;;22.20;13.18;;;25.00;96.70;;;;;;5088194;28;20097;-77
2023/09/08 06:46:10;;;;;;;18.10;12.85;;;25.20;96.70;;;;;;5088452;28;20425;-75
2023/09/08 06:48:38;;;;;;;18.80;12.73;;;25.30;96.70;;;;;;5073719;28;20142;-76
2023/09/08 06:51:08;;;;;;;20.95;13.65;;;25.40;96.70;;;;;;5090871;28;20035;-76
2023/09/08 06:53:38;;;;;;;25.70;14.32;;;25.50;96.70;;;;;;5090230;28;20423;-76
2023/09/08 06:56:07;;;;;;;27.63;14.70;;;25.60;96.70;;;;;;5090371;28;20100;-76
2023/09/08 06:58:35;;;;;;;27.65;15.52;;;25.60;96.70;;;;;;5089808;28;20134;-77
2023/09/08 07:01:04;;;;;;;25.83;14.80;;;25.60;96.70;;;;;;5109074;27;20117;-77
2023/09/08 07:03:36;;;;;;;21.60;13.38;;;25.60;96.70;;;;;;5109355;27;20119;-77
2023/09/08 07:06:10;;;;;;;20.75;12.80;;;25.50;96.70;;;;;;5074119;28;20523;-76
2023/09/08 07:08:39;;;;;;;22.23;12.73;;;25.50;96.70;;;;;;5073380;28;20469;-78
2023/09/08 07:11:07;;;;;;;17.85;11.38;;;25.60;96.70;;;;;;5090036;28;20035;-77
2023/09/08 07:13:37;;;;;;;19.70;11.95;;;25.60;96.70;;;;;;5073135;28;20138;-78
2023/09/08 07:16:05;;;;;;;21.58;11.27;;;25.60;96.70;;;;;;5090439;28;20040;-78
2023/09/08 07:18:35;;;;;;;16.35;10.45;;;25.70;96.70;;;;;;5090102;28;20585;-78
2023/09/08 07:21:06;;;;;;;20.33;9.13;;;25.70;96.70;;;;;;5073721;28;20092;-78
2023/09/08 07:23:37;;;;;;;17.27;9.65;;;25.80;96.70;;;;;;5089329;28;20043;-77
2023/09/08 07:26:07;;;;;;;12.10;8.63;;;25.90;96.70;;;;;;5089918;28;20564;-78
2023/09/08 07:28:35;;;;;;;16.88;8.27;;;26.00;96.70;;;;;;5099309;28;20793;-77
2023/09/08 07:31:09;;;;;;;11.90;7.22;;;26.00;96.70;;;;;;5092687;28;20554;-78
2023/09/08 07:33:40;;;;;;;11.63;6.85;;;26.10;96.70;;;;;;5085656;28;20063;-78
2023/09/08 07:36:10;;;;;;;11.05;7.50;;;26.20;96.70;;;;;;5069403;28;20048;-78
2023/09/08 07:38:41;;;;;;;11.57;6.45;;;26.30;96.70;;;;;;5084650;28;20044;-78
2023/09/08 07:41:10;;;;;;;11.40;5.50;;;26.40;96.70;;;;;;5086099;28;20079;-78
2023/09/08 07:43:40;;;;;;;9.05;6.22;;;26.40;96.70;;;;;;5068934;28;20418;-77
2023/09/08 07:46:12;;;;;;;6.43;4.45;;;26.50;96.70;;;;;;5085427;28;20048;-78
2023/09/08 07:48:40;;;;;;;5.70;3.95;;;26.60;96.70;;;;;;5085692;28;20052;-78
2023/09/08 07:51:09;;;;;;;6.60;4.88;;;26.70;96.70;;;;;;5087126;28;20040;-78
2023/09/08 07:53:37;;;;;;;4.82;3.83;;;26.80;96.70;;;;;;5085508;28;20440;-78
2023/09/08 07:56:06;;;;;;;4.35;3.10;;;26.90;96.70;;;;;;5087322;28;20040;-77
2023/09/08 07:58:35;;;;;;;5.75;3.85;;;27.00;96.70;;;;;;5085248;28;20089;-77
2023/09/08 08:01:03;;;;;;;4.60;3.47;;;27.00;96.70;;;;;;5085710;28;20078;-78
2023/09/08 08:03:32;;;;;;;4.57;3.40;;;27.10;96.70;;;;;;5086962;28;20070;-78
2023/09/08 08:06:00;;;;;;;5.63;3.55;;;27.10;96.70;;;;;;5085300;28;20071;-78
2023/09/08 08:08:28;;;;;;;4.80;3.47;;;27.20;96.70;;;;;;5085684;28;20075;-77
2023/09/08 08:10:56;;;;;;;6.90;3.88;;;27.30;96.70;;;;;;5085508;28;20066;-78
2023/09/08 08:13:26;;;;;;;4.03;3.05;;;27.40;96.70;;;;;;5086353;28;20051;-76
2023/09/08 08:15:54;;;;;;;13.20;4.07;;;27.50;96.70;;;;;;5085351;28;20126;-75
2023/09/08 08:18:22;;;;;;;8.90;3.53;;;27.50;96.70;;;;;;5086842;28;20063;-79
2023/09/08 08:20:50;;;;;;;5.72;3.30;;;27.50;96.70;;;;;;5084165;28;20048;-76
2023/09/08 08:23:22;;;;;;;8.57;3.88;;;27.70;96.70;;;;;;5084506;28;20052;-76
2023/09/08 08:25:50;;;;;;;6.97;3.65;;;27.70;96.70;;;;;;5086303;28;20040;-76
2023/09/08 08:28:18;;;;;;;3.92;3.05;;;27.70;96.70;;;;;;5084508;28;20050;-76
2023/09/08 08:30:48;;;;;;;4.45;3.20;;;27.80;96.70;;;;;;5086523;28;20063;-78
2023/09/08 08:33:16;;;;;;;2.88;2.67;;;27.90;96.70;;;;;;5086662;28;20565;-77
2023/09/08 08:35:49;;;;;;;3.65;3.10;;;28.10;96.70;;;;;;5088617;28;20472;-79
2023/09/08 08:38:18;;;;;;;3.88;3.25;;;28.20;96.70;;;;;;5106370;28;20083;-76
2023/09/08 08:40:46;;;;;;;3.88;3.35;;;28.10;96.70;;;;;;5097090;28;20043;-77
2023/09/08 08:43:14;;;;;;;7.63;3.28;;;28.20;96.70;;;;;;5106053;28;20043;-76
2023/09/08 08:45:44;;;;;;;5.53;2.80;;;28.20;96.70;;;;;;5106615;28;20082;-77
2023/09/08 08:48:15;;;;;;;3.60;2.83;;;28.20;96.70;;;;;;5106196;28;20052;-77
2023/09/08 08:50:44;;;;;;;5.72;2.90;;;28.20;96.70;;;;;;5087947;28;20137;-77
2023/09/08 08:53:12;;;;;;;4.22;3.10;;;28.40;96.70;;;;;;5096568;28;20540;-77
2023/09/08 08:55:41;;;;;;;3.85;3.38;;;28.50;96.70;;;;;;5071332;28;20047;-76
2023/09/08 08:58:10;;;;;;;4.13;3.08;;;28.60;96.70;;;;;;5106149;28;20043;-76
2023/09/08 09:00:38;;;;;;;4.60;3.28;;;28.60;96.70;;;;;;5088250;28;20047;-76
2023/09/08 09:03:07;;;;;;;4.57;3.35;;;28.60;96.70;;;;;;5089086;28;20044;-76
2023/09/08 09:05:44;;;;;;;5.13;2.83;;;28.80;96.70;;;;;;5079578;28;20067;-76
2023/09/08 09:08:17;;;;;;;6.32;3.20;;;29.00;96.70;;;;;;5105837;28;20044;-77
2023/09/08 09:10:45;;;;;;;3.50;3.20;;;29.10;96.70;;;;;;5088232;28;20045;-77
2023/09/08 09:13:13;;;;;;;5.68;3.10;;;29.10;96.70;;;;;;5087839;28;20035;-77
2023/09/08 09:15:46;;;;;;;3.40;2.80;;;29.10;96.70;;;;;;5105792;28;20119;-76
2023/09/08 09:18:14;;;;;;;3.40;3.10;;;29.10;96.70;;;;;;5079927;28;20200;-77
2023/09/08 09:20:54;;;;;;;6.30;3.05;;;29.20;96.70;;;;;;5105643;28;20044;-77
2023/09/08 09:23:30;;;;;;;3.75;3.13;;;29.10;96.70;;;;;;5088000;28;20066;-77
2023/09/08 09:25:59;;;;;;;6.50;3.13;;;29.20;96.70;;;;;;5105317;28;20046;-76
2023/09/08 09:28:29;;;;;;;3.70;3.03;;;29.10;96.70;;;;;;5087333;28;20046;-77
2023/09/08 09:30:59;;;;;;;4.85;3.30;;;29.20;96.70;;;;;;5105587;28;20047;-77
2023/09/08 09:33:29;;;;;;;4.90;3.10;;;29.20;96.70;;;;;;5105084;28;20397;-76
2023/09/08 09:35:59;;;;;;;7.00;3.45;;;29.20;96.70;;;;;;5105807;28;20047;-77
2023/09/08 09:38:28;;;;;;;3.80;3.40;;;29.50;96.70;;;;;;5105094;28;20039;-77
2023/09/08 09:40:58;;;;;;;3.97;3.05;;;29.60;96.70;;;;;;5105356;28;20130;-77
2023/09/08 09:43:32;;;;;;;3.88;3.33;;;29.70;96.70;;;;;;5087478;28;20052;-77
2023/09/08 09:46:00;;;;;;;3.58;3.15;;;29.70;96.70;;;;;;5105318;28;20055;-77
2023/09/08 09:48:28;;;;;;;5.40;3.05;;;29.80;96.70;;;;;;5105290;28;20067;-78
2023/09/08 09:50:57;;;;;;;3.83;3.38;;;29.90;96.70;;;;;;5105409;28;20058;-77
2023/09/08 09:53:26;;;;;;;3.95;3.42;;;30.00;96.70;;;;;;5104708;28;20035;-77
2023/09/08 09:55:55;;;;;;;7.75;3.83;;;30.10;96.70;;;;;;5078815;28;20069;-76
2023/09/08 09:58:24;;;;;;;3.55;3.05;;;30.20;96.70;;;;;;5087086;28;20688;-77
2023/09/08 10:00:54;;;;;;;6.45;3.40;;;30.50;96.70;;;;;;5105075;28;20052;-76
2023/09/08 10:03:23;;;;;;;4.53;3.65;;;30.60;96.70;;;;;;5086864;28;20051;-77
2023/09/08 10:05:51;;;;;;;3.63;3.33;;;30.70;96.70;;;;;;5070275;28;20074;-77
2023/09/08 10:08:21;;;;;;;3.72;3.38;;;30.70;96.70;;;;;;5105282;28;20509;-76
2023/09/08 10:10:50;;;;;;;4.03;3.28;;;30.50;96.70;;;;;;5102923;28;20451;-77
2023/09/08 10:13:26;;;;;;;4.30;3.45;;;30.40;96.70;;;;;;5082929;28;20048;-77
2023/09/08 10:15:58;;;;;;;4.32;3.25;;;30.50;96.70;;;;;;5087127;28;20059;-77
2023/09/08 10:18:26;;;;;;;6.63;3.72;;;30.40;96.70;;;;;;5104800;28;20196;-77
2023/09/08 10:20:57;;;;;;;4.78;3.33;;;30.40;96.70;;;;;;5087436;28;20039;-76
2023/09/08 10:23:31;;;;;;;4.75;3.20;;;30.40;96.70;;;;;;5086551;28;20055;-76
2023/09/08 10:26:05;;;;;;;7.53;3.33;;;30.40;96.70;;;;;;5105274;28;20048;-77
2023/09/08 10:28:34;;;;;;;3.70;3.40;;;30.60;96.70;;;;;;5104890;28;20043;-77
2023/09/08 10:31:03;;;;;;;5.22;3.13;;;30.60;96.70;;;;;;5087178;28;20066;-77
2023/09/08 10:33:32;;;;;;;3.28;3.00;;;30.80;96.70;;;;;;5104527;28;20127;-77
2023/09/08 10:36:03;;;;;;;4.85;3.42;;;31.00;96.70;;;;;;5079618;28;20042;-77
2023/09/08 10:38:47;;;;;;;4.97;3.42;;;31.00;96.70;;;;;;5105029;28;20067;-77
2023/09/08 10:41:33;;;;;;;4.97;3.17;;;31.00;96.70;;;;;;5104850;28;20054;-77
2023/09/08 10:44:07;;;;;;;5.75;3.33;;;31.10;96.70;;;;;;5078975;28;20059;-77
2023/09/08 10:46:37;;;;;;;3.75;3.28;;;31.30;96.70;;;;;;5070252;28;20093;-77
2023/09/08 10:49:07;;;;;;;6.20;3.25;;;31.30;96.70;;;;;;5105159;28;20528;-77
2023/09/08 10:51:36;;;;;;;3.88;3.55;;;31.20;96.70;;;;;;5087126;28;20054;-76
2023/09/08 10:54:05;;;;;;;4.43;3.10;;;31.10;96.70;;;;;;5095082;28;20040;-77
2023/09/08 10:56:49;;;;;;;3.58;3.28;;;31.20;96.70;;;;;;5104732;28;20154;-77
2023/09/08 10:59:17;;;;;;;3.70;3.28;;;31.30;96.70;;;;;;5104614;28;20036;-77
2023/09/08 11:01:47;;;;;;;3.60;3.30;;;31.40;96.70;;;;;;5104642;28;20464;-77
2023/09/08 11:04:18;;;;;;;3.83;3.25;;;31.50;96.70;;;;;;5104879;28;20501;-76
2023/09/08 11:06:48;;;;;;;6.22;3.75;;;31.70;96.70;;;;;;5086505;28;20142;-77
2023/09/08 11:09:18;;;;;;;3.80;3.35;;;31.60;96.70;;;;;;5104407;28;20159;-77
2023/09/08 11:11:46;;;;;;;4.65;3.58;;;31.60;96.70;;;;;;5104932;28;20044;-77
2023/09/08 11:14:15;;;;;;;3.90;3.28;;;31.50;96.70;;;;;;5088833;28;20126;-77
2023/09/08 11:16:43;;;;;;;6.43;3.42;;;31.60;96.70;;;;;;5090484;28;20050;-77
2023/09/08 11:19:12;;;;;;;5.25;3.40;;;31.70;96.70;;;;;;5108248;28;20046;-77
2023/09/08 11:21:40;;;;;;;4.10;3.45;;;31.70;96.70;;;;;;5100104;28;20497;-77
2023/09/08 11:24:10;;;;;;;4.03;3.50;;;31.70;96.70;;;;;;5108165;28;20518;-77
2023/09/08 11:26:40;;;;;;;3.80;3.50;;;31.80;96.70;;;;;;5108620;28;20078;-77
2023/09/08 11:29:09;;;;;;;5.78;3.00;;;31.90;96.70;;;;;;5107887;28;21445;-77
2023/09/08 11:31:37;;;;;;;8.70;3.42;;;31.80;96.70;;;;;;5107383;28;20048;-77
2023/09/08 11:34:05;;;;;;;5.03;3.08;;;32.00;96.70;;;;;;5107377;28;20056;-76
2023/09/08 11:36:36;;;;;;;5.68;3.70;;;32.40;96.70;;;;;;5089313;28;20051;-77
2023/09/08 11:39:06;;;;;;;5.80;3.90;;;32.40;96.70;;;;;;5072753;28;20701;-77
2023/09/08 11:41:35;;;;;;;3.95;3.65;;;32.30;96.70;;;;;;5108013;28;20134;-77
2023/09/08 11:44:05;;;;;;;4.20;3.45;;;32.50;96.70;;;;;;5089423;28;20044;-76
2023/09/08 11:46:33;;;;;;;3.72;3.38;;;32.80;96.70;;;;;;5107653;28;20474;-76
2023/09/08 11:49:03;;;;;;;4.70;3.60;;;32.90;96.70;;;;;;5073302;28;20088;-77
2023/09/08 11:51:32;;;;;;;4.78;3.35;;;32.90;96.70;;;;;;5107711;28;20122;-77
2023/09/08 11:54:00;;;;;;;3.78;3.47;;;32.70;96.70;;;;;;5098842;28;20047;-77
2023/09/08 11:56:29;;;;;;;4.50;3.17;;;32.70;96.70;;;;;;5108071;28;20044;-77
2023/09/08 11:58:58;;;;;;;5.95;3.55;;;32.70;96.70;;;;;;5089360;28;20492;-78
2023/09/08 12:01:27;;;;;;;4.30;3.20;;;32.50;96.70;;;;;;5107323;28;20409;-77
2023/09/08 12:03:57;;;;;;;3.80;3.30;;;32.50;96.70;;;;;;5089263;28;20043;-77
2023/09/08 12:06:27;;;;;;;4.88;3.35;;;32.50;96.70;;;;;;5106310;28;20126;-77
2023/09/08 12:08:56;;;;;;;4.35;3.63;;;32.50;96.70;;;;;;5071841;28;20036;-77
2023/09/08 12:11:24;;;;;;;6.53;3.55;;;32.80;96.70;;;;;;5089515;28;20092;-78
2023/09/08 12:14:00;;;;;;;3.67;3.38;;;32.90;96.70;;;;;;5106890;28;20092;-78
2023/09/08 12:16:32;;;;;;;4.55;3.45;;;33.10;96.70;;;;;;5088694;28;20583;-78
2023/09/08 12:19:00;;;;;;;4.43;3.13;;;33.20;96.70;;;;;;5072023;28;20048;-78
2023/09/08 12:21:28;;;;;;;3.75;3.45;;;33.30;96.70;;;;;;5106984;28;20074;-78
2023/09/08 12:23:57;;;;;;;3.92;3.45;;;33.30;96.70;;;;;;5089345;28;20459;-78
2023/09/08 12:26:26;;;;;;;3.65;3.28;;;33.20;96.70;;;;;;5088881;28;20043;-78
2023/09/08 12:28:54;;;;;;;4.03;3.13;;;33.20;96.70;;;;;;5106897;28;20043;-77
2023/09/08 12:31:23;;;;;;;3.20;2.78;;;33.30;96.70;;;;;;5106630;28;20429;-77
2023/09/08 12:33:53;;;;;;;3.17;2.97;;;33.50;96.70;;;;;;5088373;28;20062;-77
2023/09/08 12:36:21;;;;;;;4.47;3.50;;;33.80;96.70;;;;;;5106333;28;20501;-77
2023/09/08 12:38:50;;;;;;;8.80;3.28;;;33.90;96.70;;;;;;5106741;28;20044;-78
2023/09/08 12:41:18;;;;;;;3.15;2.95;;;34.00;96.70;;;;;;5088357;28;20054;-77
2023/09/08 12:43:46;;;;;;;3.58;3.28;;;34.20;96.70;;;;;;5105844;28;20040;-75
2023/09/08 12:46:18;;;;;;;4.82;3.58;;;34.40;96.70;;;;;;5097991;28;20066;-76
2023/09/08 12:48:46;;;;;;;4.43;3.40;;;34.00;96.70;;;;;;5088365;28;20058;-76
2023/09/08 12:51:16;;;;;;;8.57;3.88;;;33.70;96.70;;;;;;5088804;28;20057;-77
2023/09/08 12:53:44;;;;;;;3.85;3.35;;;33.60;96.70;;;;;;5106489;28;20048;-77
2023/09/08 12:56:12;;;;;;;3.58;3.10;;;33.60;96.70;;;;;;5088456;28;20401;-76